Map

Track Data

SID SEASON NUMBER BASIN SUBBASIN NAME ISO_TIME NATURE LAT LON WMO_WIND WMO_PRES WMO_AGENCY TRACK_TYPE DIST2LAND LANDFALL IFLAG USA_AGENCY USA_ATCF_ID USA_LAT USA_LON USA_RECORD USA_STATUS USA_WIND USA_PRES USA_SSHS USA_R34_NE USA_R34_SE USA_R34_SW USA_R34_NW USA_R50_NE USA_R50_SE USA_R50_SW USA_R50_NW USA_R64_NE USA_R64_SE USA_R64_SW USA_R64_NW USA_POCI USA_ROCI USA_RMW USA_EYE TOKYO_LAT TOKYO_LON TOKYO_GRADE TOKYO_WIND TOKYO_PRES TOKYO_R50_DIR TOKYO_R50_LONG TOKYO_R50_SHORT TOKYO_R30_DIR TOKYO_R30_LONG TOKYO_R30_SHORT TOKYO_LAND CMA_LAT CMA_LON CMA_CAT CMA_WIND CMA_PRES HKO_LAT HKO_LON HKO_CAT HKO_WIND HKO_PRES NEWDELHI_LAT NEWDELHI_LON NEWDELHI_GRADE NEWDELHI_WIND NEWDELHI_PRES NEWDELHI_CI NEWDELHI_DP NEWDELHI_POCI REUNION_LAT REUNION_LON REUNION_TYPE REUNION_WIND REUNION_PRES REUNION_TNUM REUNION_CI REUNION_RMW REUNION_R34_NE REUNION_R34_SE REUNION_R34_SW REUNION_R34_NW REUNION_R50_NE REUNION_R50_SE REUNION_R50_SW REUNION_R50_NW REUNION_R64_NE REUNION_R64_SE REUNION_R64_SW REUNION_R64_NW BOM_LAT BOM_LON BOM_TYPE BOM_WIND BOM_PRES BOM_TNUM BOM_CI BOM_RMW BOM_R34_NE BOM_R34_SE BOM_R34_SW BOM_R34_NW BOM_R50_NE BOM_R50_SE BOM_R50_SW BOM_R50_NW BOM_R64_NE BOM_R64_SE BOM_R64_SW BOM_R64_NW BOM_ROCI BOM_POCI BOM_EYE BOM_POS_METHOD BOM_PRES_METHOD NADI_LAT NADI_LON NADI_CAT NADI_WIND NADI_PRES WELLINGTON_LAT WELLINGTON_LON WELLINGTON_WIND WELLINGTON_PRES DS824_LAT DS824_LON DS824_STAGE DS824_WIND DS824_PRES TD9636_LAT TD9636_LON TD9636_STAGE TD9636_WIND TD9636_PRES TD9635_LAT TD9635_LON TD9635_WIND TD9635_PRES TD9635_ROCI NEUMANN_LAT NEUMANN_LON NEUMANN_CLASS NEUMANN_WIND NEUMANN_PRES MLC_LAT MLC_LON MLC_CLASS MLC_WIND MLC_PRES USA_GUST BOM_GUST BOM_GUST_PER REUNION_GUST REUNION_GUST_PER USA_SEAHGT USA_SEARAD_NE USA_SEARAD_SE USA_SEARAD_SW USA_SEARAD_NW STORM_SPEED STORM_DIR
1953008S08057 1953 2 SI MM NOT_NAMED 1953-01-07 18:00:00 TS -8.00000 56.7000 main 927 897 O________OO___ jtwc_sh SH051953 -8.00000 56.7000 -1 -8.00000 56.7000 TC -8.00000 56.7000 7 7 225
1953008S08057 1953 2 SI MM NOT_NAMED 1953-01-07 21:00:00 TS -8.24592 56.4506 main 897 851 P________PP___ SH051953 -8.25003 56.4501 -1 -8.25003 56.4501 TC -8.23768 56.4518 7 7 225
1953008S08057 1953 2 SI MM NOT_NAMED 1953-01-08 00:00:00 TS -8.49341 56.2009 main 851 821 O________OP___ jtwc_sh SH051953 -8.50000 56.2000 -1 -8.50000 56.2000 TC -8.48023 56.2027 7 7 225
1953008S08057 1953 2 SI MM NOT_NAMED 1953-01-08 03:00:00 TS -8.74421 55.9507 main 821 751 P________PP___ SH051953 -8.74998 55.9500 -1 -8.74998 55.9500 TC -8.73267 55.9523 7 9 229
1953008S08057 1953 2 SI MM NOT_NAMED 1953-01-08 06:00:00 TS -9.09231 55.5000 reunion main 751 696 O____O___OO___ jtwc_sh SH051953 -9.00000 55.7000 -1 -10.2000 53.1000 99 9.90000 -9.00000 55.7000 TC 25 -9.00000 55.7000 7 11 233
1953008S08057 1953 2 SI MM NOT_NAMED 1953-01-08 09:00:00 TS -9.39355 55.0756 main 696 640 P____P___PP___ SH051953 -9.24245 55.4649 -1 -10.2174 52.7842 99 -9.24245 55.4649 TC 25 -9.28384 55.4427 7 10 236
1953008S08057 1953 2 SI MM NOT_NAMED 1953-01-08 12:00:00 TS -9.66629 54.6450 main 632 583 O____P___OP___ jtwc_sh SH051953 -9.50000 55.2000 -1 -10.2353 52.4687 99 -9.50000 55.2000 TC 25 -9.57214 55.1673 7 10 239
1953008S08057 1953 2 SI MM NOT_NAMED 1953-01-08 15:00:00 TS -9.92595 54.1930 main 583 543 P____P___PP___ SH051953 -9.79995 54.8800 -1 -10.2545 52.1538 99 -9.79995 54.8800 TC 25 -9.84938 54.8583 7 9 239
1953008S08057 1953 2 SI MM NOT_NAMED 1953-01-08 18:00:00 TS -10.1440 53.8350 main 534 495 O____P___OO___ jtwc_sh SH051953 -10.1000 54.5000 -1 -10.2759 51.8399 99 -10.1000 54.5000 TC 25 -10.1000 54.5000 7 9 240
1953008S08057 1953 2 SI MM NOT_NAMED 1953-01-08 21:00:00 TS -10.3532 53.4390 main 479 436 P____P___PP___ SH051953 -10.3800 54.0725 -1 -10.3004 51.5272 99 -10.3800 54.0725 TC 25 -10.3525 54.0838 7 9 245
1953008S08057 1953 2 SI MM NOT_NAMED 1953-01-09 00:00:00 TS -10.5246 53.0086 main 436 392 O____P___OP___ jtwc_sh SH051953 -10.6000 53.6000 -1 -10.3286 51.2162 99 -10.6000 53.6000 TC 25 -10.5700 53.6181 7 9 251
1953008S08057 1953 2 SI MM NOT_NAMED 1953-01-09 03:00:00 TS -10.6485 52.5638 main 392 339 P____P___PP___ SH051953 -10.7524 53.1150 -1 -10.3616 50.9070 99 -10.7524 53.1150 TC 25 -10.7274 53.1183 7 9 259
1953008S08057 1953 2 SI MM NOT_NAMED 1953-01-09 06:00:00 TS -10.7000 52.1000 reunion main 339 292 O____O___OO___ jtwc_sh SH051953 -10.8000 52.6000 -1 -10.4000 50.6000 99 9.90000 -10.8000 52.6000 TC 25 -10.8000 52.6000 7 9 269
1953008S08057 1953 2 SI MM NOT_NAMED 1953-01-09 09:00:00 TS -10.6681 51.6200 main 292 265 P____P___PP___ SH051953 -10.7375 52.0499 -1 -10.4446 50.2956 99 -10.7375 52.0499 TC 25 -10.7530 52.0846 7 10 277
1953008S08057 1953 2 SI MM NOT_NAMED 1953-01-09 12:00:00 TS -10.5800 51.1378 main 257 235 O____P___OP___ jtwc_sh SH051953 -10.6000 51.5000 -1 -10.4951 49.9944 99 -10.6000 51.5000 TC 25 -10.6249 51.5566 7 9 282
1953008S08057 1953 2 SI MM NOT_NAMED 1953-01-09 15:00:00 TS -10.4775 50.6769 main 235 219 P____P___PP___ SH051953 -10.4499 50.9925 -1 -10.5511 49.6973 99 -10.4499 50.9925 TC 25 -10.4593 51.0253 7 9 283
1953008S08057 1953 2 SI MM NOT_NAMED 1953-01-09 18:00:00 TS -10.3781 50.2263 main 214 208 O____P___OO___ jtwc_sh SH051953 -10.3000 50.5000 -1 -10.6122 49.4050 99 -10.3000 50.5000 TC 25 -10.3000 50.5000 7 9 281
1953008S08057 1953 2 SI MM NOT_NAMED 1953-01-09 21:00:00 TS -10.3095 49.7727 main 208 201 P____P___PP___ SH051953 -10.1849 50.0000 -1 -10.6781 49.1184 99 -10.1849 50.0000 TC 25 -10.1902 49.9725 7 9 277
1953008S08057 1953 2 SI MM NOT_NAMED 1953-01-10 00:00:00 TS -10.2614 49.3233 main 201 201 O____P___OP___ jtwc_sh SH051953 -10.1000 49.5000 -1 -10.7483 48.8381 99 -10.1000 49.5000 TC 25 -10.0974 49.4550 7 9 275
1953008S08057 1953 2 SI MM NOT_NAMED 1953-01-10 03:00:00 TS -10.2308 48.8738 main 215 215 P____P___PP___ SH051953 -10.0350 48.9850 -1 -10.8224 48.5650 99 -10.0350 48.9850 TC 25 -10.0309 48.9599 7 9 272
1953008S08057 1953 2 SI MM NOT_NAMED 1953-01-10 06:00:00 TS -10.2250 48.4500 reunion main 226 226 O____O___OO___ jtwc_sh SH051953 -10.0000 48.5000 -1 -10.9000 48.3000 99 9.90000 -10.0000 48.5000 TC 25 -10.0000 48.5000 7 8 270
1953008S08057 1953 2 SI MM NOT_NAMED 1953-01-10 09:00:00 TS -10.2248 48.0650 main 244 244 P____P___PP___ SH051953 -9.97742 48.0775 -1 -10.9589 48.0322 99 -9.97742 48.0775 TC 25 -9.98539 48.0729 7 7 267
1953008S08057 1953 2 SI MM NOT_NAMED 1953-01-10 12:00:00 TS -10.2574 47.7135 main 259 259 O____P___OP___ jtwc_sh SH051953 -10.0000 47.7000 -1 -11.0198 47.7715 99 -10.0000 47.7000 TC 25 -10.0097 47.6825 7 7 261
1953008S08057 1953 2 SI MM NOT_NAMED 1953-01-10 15:00:00 TS -10.3262 47.3786 main 281 281 P____P___PP___ SH051953 -10.0700 47.3350 -1 -11.0857 47.5186 99 -10.0700 47.3350 TC 25 -10.0792 47.3259 7 7 254
1953008S08057 1953 2 SI MM NOT_NAMED 1953-01-10 18:00:00 TS -10.4399 47.0686 main 297 297 O____P___OO___ jtwc_sh SH051953 -10.2000 47.0000 -1 -11.1598 47.2744 99 -10.2000 47.0000 TC 25 -10.2000 47.0000 7 7 246
1953008S08057 1953 2 SI MM NOT_NAMED 1953-01-10 21:00:00 TS -10.5937 46.7704 main 304 304 P____P___PP___ SH051953 -10.3775 46.6850 -1 -11.2452 47.0397 99 -10.3775 46.6850 TC 30 -10.3746 46.6721 7 7 238
1953008S08057 1953 2 SI MM NOT_NAMED 1953-01-11 00:00:00 TS -10.7856 46.4976 main 314 314 O____P___OP___ jtwc_sh SH051953 -10.6000 46.4000 -1 -11.3449 46.8152 99 -10.6000 46.4000 TC 35 -10.5974 46.3753 7 7 232
1953008S08057 1953 2 SI MM NOT_NAMED 1953-01-11 03:00:00 TS -11.0022 46.2431 main 329 323 P____P___PP___ SH051953 -10.8500 46.1275 -1 -11.4621 46.6017 99 -10.8500 46.1275 TC 50 -10.8465 46.1158 7 6 226
1953008S08057 1953 2 SI MM NOT_NAMED 1953-01-11 06:00:00 TS -11.2250 46.0250 reunion main 337 333 O____O___OO___ jtwc_sh SH051953 -11.1000 45.9000 -1 -11.6000 46.4000 99 9.90000 -11.1000 45.9000 TC 65 -11.1000 45.9000 4 6 223
1953008S08057 1953 2 SI MM NOT_NAMED 1953-01-11 09:00:00 TS -11.4233 45.8351 main 343 335 P____P___PP___ SH051953 -11.3000 45.7274 -1 -11.7602 46.1699 99 -11.3000 45.7274 TC 65 -11.3330 45.7155 4 5 220
1953008S08057 1953 2 SI MM NOT_NAMED 1953-01-11 12:00:00 TS -11.6264 45.6806 main 335 327 O____P___OP___ jtwc_sh SH051953 -11.5000 45.6000 -1 -11.9409 45.9476 99 -11.5000 45.6000 TC 65 -11.5649 45.5749 4 5 213
1953008S08057 1953 2 SI MM NOT_NAMED 1953-01-11 15:00:00 TS -11.8609 45.5451 main 329 315 P____P___PP___ SH051953 -11.7575 45.4850 -1 -12.1392 45.7387 99 -11.7575 45.4850 TC 65 -11.7893 45.4718 4 5 207
1953008S08057 1953 2 SI MM NOT_NAMED 1953-01-11 18:00:00 TS -12.0881 45.4373 main 324 313 O____P___OO___ jtwc_sh SH051953 -12.0000 45.4000 -1 -12.3525 45.5491 99 -12.0000 45.4000 TC 65 -12.0000 45.4000 4 5 206
1953008S08057 1953 2 SI MM NOT_NAMED 1953-01-11 21:00:00 TS -12.2645 45.3461 main 322 317 P____P___PP___ SH051953 -12.1575 45.3350 -1 -12.5779 45.3846 99 -12.1575 45.3350 TC 65 -12.1650 45.3300 4 4 203
1953008S08057 1953 2 SI MM NOT_NAMED 1953-01-12 00:00:00 TS -12.4332 45.2853 main 317 307 O____P___OP___ jtwc_sh SH051953 -12.3000 45.3000 -1 -12.8128 45.2510 99 -12.3000 45.3000 TC 65 -12.3200 45.2900 4 4 195
1953008S08057 1953 2 SI MM NOT_NAMED 1953-01-12 03:00:00 TS -12.6248 45.2511 main 307 307 P____P___PP___ SH051953 -12.4775 45.2850 -1 -13.0544 45.1541 99 -12.4775 45.2850 TC 65 -12.4900 45.2801 4 4 185
1953008S08057 1953 2 SI MM NOT_NAMED 1953-01-12 06:00:00 TS -12.8500 45.2500 reunion main 299 289 O____O___OO___ jtwc_sh SH051953 -12.7000 45.3000 -1 -13.3000 45.1000 99 9.90000 -12.7000 45.3000 TC 65 -12.7000 45.3000 4 5 178
1953008S08057 1953 2 SI MM NOT_NAMED 1953-01-12 09:00:00 TS -13.1251 45.2741 main 289 264 P____P___PP___ SH051953 -12.9775 45.3350 -1 -13.5473 45.0922 99 -12.9775 45.3350 TC 65 -12.9981 45.3340 4 6 172
1953008S08057 1953 2 SI MM NOT_NAMED 1953-01-12 12:00:00 TS -13.4344 45.3313 main 264 230 O____P___OP___ jtwc_sh SH051953 -13.3000 45.4000 -1 -13.8025 45.1277 99 -13.3000 45.4000 TC 65 -13.3350 45.3974 4 7 168
1953008S08057 1953 2 SI MM NOT_NAMED 1953-01-12 15:00:00 TS -13.7678 45.4144 main 220 187 P____P___PP___ SH051953 -13.6650 45.4850 -1 -14.0620 45.2003 99 -13.6650 45.4850 TC 65 -13.6794 45.4872 4 7 164
1953008S08057 1953 2 SI MM NOT_NAMED 1953-01-12 18:00:00 TS -14.0806 45.5259 main 187 156 O____P___OO___ jtwc_sh SH051953 -14.0000 45.6000 -1 -14.3222 45.3037 99 -14.0000 45.6000 TC 65 -14.0000 45.6000 4 6 156
1953008S08057 1953 2 SI MM NOT_NAMED 1953-01-12 21:00:00 TS -14.3148 45.6613 main 156 132 P____P___PP___ SH051953 -14.2150 45.7426 -1 -14.5797 45.4317 99 -14.2150 45.7426 TC 65 -14.2497 45.7285 4 5 148
1953008S08057 1953 2 SI MM NOT_NAMED 1953-01-13 00:00:00 TS -14.5258 45.8139 main 132 101 O____P___OP___ jtwc_sh SH051953 -14.4000 45.9000 -1 -14.8308 45.5780 99 -14.4000 45.9000 TC 65 -14.4725 45.8776 4 5 146
1953008S08057 1953 2 SI MM NOT_NAMED 1953-01-13 03:00:00 TS -14.7603 45.9685 main 93 69 P____P___PP___ SH051953 -14.6425 46.0500 -1 -15.0721 45.7362 99 -14.6425 46.0500 TC 65 -14.6841 46.0379 4 6 147
1953008S08057 1953 2 SI MM NOT_NAMED 1953-01-13 06:00:00 TS -15.0000 46.1250 reunion main 69 39 O____O___OO___ jtwc_sh SH051953 -14.9000 46.2000 -1 -15.3000 45.9000 99 9.90000 -14.9000 46.2000 TC 65 -14.9000 46.2000 4 6 149
1953008S08057 1953 2 SI MM NOT_NAMED 1953-01-13 09:00:00 TS -15.2404 46.2734 main 39 11 P____P___PP___ SH051953 -15.1500 46.3500 -1 -15.5067 46.0356 99 -15.1500 46.3500 TC 65 -15.1550 46.3581 4 6 149
1953008S08057 1953 2 SI MM NOT_NAMED 1953-01-13 12:00:00 TS -15.4791 46.4240 main 11 0 O____P___OP___ jtwc_sh SH051953 -15.4000 46.5000 -1 -15.7012 46.1812 99 -15.4000 46.5000 TC 65 -15.4150 46.5149 4 6 148
1953008S08057 1953 2 SI MM NOT_NAMED 1953-01-13 15:00:00 TS -15.7169 46.5787 main 0 0 P____P___PP___ SH051953 -15.6575 46.6575 -1 -15.8851 46.3357 99 -15.6575 46.6575 TC 65 -15.6675 46.6643 4 5 148
1953008S08057 1953 2 SI MM NOT_NAMED 1953-01-13 18:00:00 TS -15.9400 46.7245 main 0 0 O____P___OO___ jtwc_sh SH051953 -15.9000 46.8000 -1 -16.0599 46.4979 99 -15.9000 46.8000 TC 65 -15.9000 46.8000 4 5 148
1953008S08057 1953 2 SI MM NOT_NAMED 1953-01-13 21:00:00 TS -16.1394 46.8480 main 0 0 P____P___PP___ SH051953 -16.1150 46.9075 -1 -16.2272 46.6666 99 -16.1150 46.9075 TC 50 -16.1006 46.9105 4 4 149
1953008S08057 1953 2 SI MM NOT_NAMED 1953-01-14 00:00:00 TS -16.3171 46.9621 main 0 0 O____P___OP___ jtwc_sh SH051953 -16.3000 47.0000 -1 -16.3886 46.8406 99 -16.3000 47.0000 TC 35 -16.2799 47.0077 4 4 147
1953008S08057 1953 2 SI MM NOT_NAMED 1953-01-14 03:00:00 TS -16.4762 47.0763 main 0 0 P____P___PP___ SH051953 -16.4575 47.0925 -1 -16.5457 47.0188 99 -16.4575 47.0925 TC 35 -16.4443 47.1011 4 4 143
1953008S08057 1953 2 SI MM NOT_NAMED 1953-01-14 06:00:00 TS -16.6250 47.2000 reunion main 0 0 O____O___OO___ jtwc_sh SH051953 -16.6000 47.2000 -1 -16.7000 47.2000 99 9.90000 -16.6000 47.2000 TC 35 -16.6000 47.2000 2 4 139
1953008S08057 1953 2 SI MM NOT_NAMED 1953-01-14 09:00:00 TS -16.7787 47.3553 main 0 0 P____P___PP___ SH051953 -16.7500 47.3500 -1 -16.8575 47.3954 99 -16.7500 47.3500 TC 35 -16.7572 47.3259 2 4 135
1953008S08057 1953 2 SI MM NOT_NAMED 1953-01-14 12:00:00 TS -16.9295 47.5137 main 0 0 O____P___OP___ jtwc_sh SH051953 -16.9000 47.5000 -1 -17.0106 47.5971 99 -16.9000 47.5000 TC 35 -16.9075 47.4575 2 4 137
1953008S08057 1953 2 SI MM NOT_NAMED 1953-01-14 15:00:00 TS -17.0786 47.6503 main 0 0 P____P___PP___ SH051953 -17.0500 47.6075 -1 -17.1604 47.8009 99 -17.0500 47.6075 TC 35 -17.0541 47.5853 2 4 140
1953008S08057 1953 2 SI MM NOT_NAMED 1953-01-14 18:00:00 TS -17.2270 47.7756 main 0 0 O____P___OO___ jtwc_sh SH051953 -17.2000 47.7000 -1 -17.3080 48.0023 99 -17.2000 47.7000 TC 35 -17.2000 47.7000 2 4 141
1953008S08057 1953 2 SI MM NOT_NAMED 1953-01-14 21:00:00 TS -17.3751 47.8994 main 0 0 P____P___PP___ SH051953 -17.3500 47.8075 -1 -17.4545 48.1973 99 -17.3500 47.8075 TC 30 -17.3459 47.7854 2 4 143
1953008S08057 1953 2 SI MM NOT_NAMED 1953-01-15 00:00:00 TS -17.5234 48.0098 main 0 0 O____P___OP___ jtwc_sh SH051953 -17.5000 47.9000 -1 -17.6013 48.3814 99 -17.5000 47.9000 TC 25 -17.4924 47.8577 2 4 148
1953008S08057 1953 2 SI MM NOT_NAMED 1953-01-15 03:00:00 TS -17.6730 48.0941 main 0 0 P____P___PP___ SH051953 -17.6500 47.9500 -1 -17.7494 48.5504 99 -17.6500 47.9500 TC 25 -17.6428 47.9261 2 3 152
1953008S08057 1953 2 SI MM NOT_NAMED 1953-01-15 06:00:00 TS -17.8250 48.1750 reunion main 0 0 O____O___OO___ jtwc_sh SH051953 -17.8000 48.0000 -1 -17.9000 48.7000 99 9.90000 -17.8000 48.0000 TC 25 -17.8000 48.0000 1 4 150
1953008S08057 1953 2 SI MM NOT_NAMED 1953-01-15 09:00:00 TS -17.9801 48.2810 main 0 0 P____P___PP___ SH051953 -17.9425 48.0925 -1 -18.0634 48.8342 99 -17.9425 48.0925 TC 25 -17.9719 48.1049 1 4 147
1953008S08057 1953 2 SI MM NOT_NAMED 1953-01-15 12:00:00 TS -18.1449 48.3916 main 0 0 O____P___OP___ jtwc_sh SH051953 -18.1000 48.2000 -1 -18.2296 48.9514 99 -18.1000 48.2000 TC 25 -18.1501 48.2149 1 4 150
1953008S08057 1953 2 SI MM NOT_NAMED 1953-01-15 15:00:00 TS -18.3313 48.4960 main 0 0 P____P___PP___ SH051953 -18.3000 48.3075 -1 -18.3972 49.0517 99 -18.3000 48.3075 TC 25 -18.3282 48.3174 1 4 154
1953008S08057 1953 2 SI MM NOT_NAMED 1953-01-15 18:00:00 TS -18.5161 48.5838 main 0 0 O____P___OO___ jtwc_sh SH051953 -18.5000 48.4000 -1 -18.5646 49.1351 99 -18.5000 48.4000 TC 25 -18.5000 48.4000 7 4 158
1953008S08057 1953 2 SI MM NOT_NAMED 1953-01-15 21:00:00 TS -18.6765 48.6463 main 0 0 P____P___PP___ SH051953 -18.6575 48.4650 -1 -18.7301 49.2016 99 -18.6575 48.4650 TC 25 -18.6609 48.4535 7 3 157
1953008S08057 1953 2 SI MM NOT_NAMED 1953-01-16 00:00:00 TS -18.8313 48.7271 main 0 0 O____P___OP___ jtwc_sh SH051953 -18.8000 48.5000 -1 -18.8922 49.2512 99 -18.8000 48.5000 TC 25 -18.8125 48.4826 7 4 153
1953008S08057 1953 2 SI MM NOT_NAMED 1953-01-16 03:00:00 TS -18.9903 48.8157 main 0 0 P____P___PP___ SH051953 -18.9475 48.5075 -1 -19.0494 49.2840 99 -18.9475 48.5075 TC 25 -18.9578 48.4954 7 4 146
1953008S08057 1953 2 SI MM NOT_NAMED 1953-01-16 06:00:00 TS -19.1571 48.9571 reunion main 0 0 O____O___OO___ jtwc_sh SH051953 -19.1000 48.5000 -1 -19.2000 49.3000 99 9.90000 -19.1000 48.5000 TC 25 -19.1000 48.5000 1 6 127
1953008S08057 1953 2 SI MM NOT_NAMED 1953-01-16 09:00:00 NR -19.3465 49.3122 main 33 33 _____P________ SH051953 -1 -19.3465 49.3122 99 TC 1 5 135
1953008S08057 1953 2 SI MM NOT_NAMED 1953-01-16 12:00:00 NR -19.4877 49.3063 main 43 43 _____P________ -1 -19.4877 49.3063 99 1 3 183
1953008S08057 1953 2 SI MM NOT_NAMED 1953-01-16 15:00:00 NR -19.6231 49.2843 main 47 47 _____P________ -1 -19.6231 49.2843 99 1 3 193
1953008S08057 1953 2 SI MM NOT_NAMED 1953-01-16 18:00:00 NR -19.7523 49.2480 main 41 41 _____P________ -1 -19.7523 49.2480 99 3 198
1953008S08057 1953 2 SI MM NOT_NAMED 1953-01-16 21:00:00 NR -19.8751 49.1994 main 41 31 _____P________ -1 -19.8751 49.1994 99 3 203
1953008S08057 1953 2 SI MM NOT_NAMED 1953-01-17 00:00:00 NR -19.9908 49.1406 main 31 31 _____P________ -1 -19.9908 49.1406 99 3 208
1953008S08057 1953 2 SI MM NOT_NAMED 1953-01-17 03:00:00 NR -20.0993 49.0734 main 33 23 _____P________ -1 -20.0993 49.0734 99 2 212
1953008S08057 1953 2 SI MM NOT_NAMED 1953-01-17 06:00:00 NR -20.2000 49.0000 reunion main 30 23 _____O________ -1 -20.2000 49.0000 99 9.90000 2 215
1953008S08057 1953 2 SI MM NOT_NAMED 1953-01-17 09:00:00 NR -20.2994 48.9292 main 23 23 _____P________ -1 -20.2994 48.9292 99 2 216
1953008S08057 1953 2 SI MM NOT_NAMED 1953-01-17 12:00:00 NR -20.3910 48.8498 main 20 20 _____P________ -1 -20.3910 48.8498 99 2 221
1953008S08057 1953 2 SI MM NOT_NAMED 1953-01-17 15:00:00 NR -20.4753 48.7636 main 23 15 _____P________ -1 -20.4753 48.7636 99 2 226
1953008S08057 1953 2 SI MM NOT_NAMED 1953-01-17 18:00:00 NR -20.5526 48.6726 main 20 10 _____P________ -1 -20.5526 48.6726 99 2 229
1953008S08057 1953 2 SI MM NOT_NAMED 1953-01-17 21:00:00 NR -20.6233 48.5788 main 10 0 _____P________ -1 -20.6233 48.5788 99 2 233
1953008S08057 1953 2 SI MM NOT_NAMED 1953-01-18 00:00:00 NR -20.6879 48.4841 main 10 0 _____P________ -1 -20.6879 48.4841 99 2 235
1953008S08057 1953 2 SI MM NOT_NAMED 1953-01-18 03:00:00 NR -20.7466 48.3905 main 0 0 _____P________ -1 -20.7466 48.3905 99 2 237
1953008S08057 1953 2 SI MM NOT_NAMED 1953-01-18 06:00:00 NR -20.8000 48.3000 reunion main 0 0 _____O________ -1 -20.8000 48.3000 99 9.90000 2 238
1953008S08057 1953 2 SI MM NOT_NAMED 1953-01-18 09:00:00 NR -20.8484 48.2140 main 0 0 _____P________ -1 -20.8484 48.2140 99 2 239
1953008S08057 1953 2 SI MM NOT_NAMED 1953-01-18 12:00:00 NR -20.8925 48.1325 main 0 0 _____P________ -1 -20.8925 48.1325 99 2 241
1953008S08057 1953 2 SI MM NOT_NAMED 1953-01-18 15:00:00 NR -20.9328 48.0546 main 0 0 _____P________ -1 -20.9328 48.0546 99 2 242
1953008S08057 1953 2 SI MM NOT_NAMED 1953-01-18 18:00:00 NR -20.9700 47.9800 main 0 0 _____P________ -1 -20.9700 47.9800 99 2 242
1953008S08057 1953 2 SI MM NOT_NAMED 1953-01-18 21:00:00 NR -21.0047 47.9078 main 0 0 _____P________ -1 -21.0047 47.9078 99 1 243
1953008S08057 1953 2 SI MM NOT_NAMED 1953-01-19 00:00:00 NR -21.0375 47.8375 main 0 0 _____P________ -1 -21.0375 47.8375 99 1 244
1953008S08057 1953 2 SI MM NOT_NAMED 1953-01-19 03:00:00 NR -21.0691 47.7684 main 0 0 _____P________ -1 -21.0691 47.7684 99 1 244
1953008S08057 1953 2 SI MM NOT_NAMED 1953-01-19 06:00:00 NR -21.1000 47.7000 reunion main 0 _____O________ -1 -21.1000 47.7000 99 9.90000 1 247

About IBTrACS Database

This database is a web-friendly format of International Best Track Archive for Climate Stewardship (IBTrACS), a global best track data archive curated by NOAA dating back to 1842.

Updated: 2021-10-21